createdAt,value
2019-02-19T00:01:07.438Z,-0.49
2019-02-19T00:03:35.833Z,-0.49
2019-02-19T00:06:04.227Z,-0.49
2019-02-19T00:08:32.623Z,-0.51
2019-02-19T00:11:01.008Z,-0.54
2019-02-19T00:13:29.408Z,-0.62
2019-02-19T00:15:57.794Z,-0.65
2019-02-19T00:18:26.187Z,-0.65
2019-02-19T00:20:54.583Z,-0.65
2019-02-19T00:23:23.262Z,-0.66
2019-02-19T00:25:51.656Z,-0.68
2019-02-19T00:28:20.049Z,-0.68
2019-02-19T00:30:48.433Z,-0.68
2019-02-19T00:33:16.834Z,-0.69
2019-02-19T00:35:45.225Z,-0.70
2019-02-19T00:38:13.686Z,-0.74
2019-02-19T00:40:42.092Z,-0.75
2019-02-19T00:43:10.484Z,-0.77
2019-02-19T00:45:38.875Z,-0.77
2019-02-19T00:48:07.270Z,-0.78
2019-02-19T00:50:35.697Z,-0.79
2019-02-19T00:53:04.163Z,-0.80
2019-02-19T00:55:32.558Z,-0.84
2019-02-19T00:58:00.958Z,-0.91
2019-02-19T01:00:29.349Z,-0.92
2019-02-19T01:02:57.748Z,-0.93
2019-02-19T01:05:26.425Z,-0.92
2019-02-19T01:07:54.814Z,-0.92
2019-02-19T01:10:23.246Z,-0.92
2019-02-19T01:12:51.716Z,-0.92
2019-02-19T01:15:25.374Z,-0.92
2019-02-19T01:17:50.240Z,-0.92
2019-02-19T01:20:18.638Z,-0.94
2019-02-19T01:22:47.032Z,-0.95
2019-02-19T01:25:15.426Z,-0.98
2019-02-19T01:27:43.829Z,-1.00
2019-02-19T01:30:12.292Z,-1.03
2019-02-19T01:32:40.685Z,-1.05
2019-02-19T01:35:09.221Z,-1.05
2019-02-19T01:37:37.613Z,-1.04
2019-02-19T01:40:08.540Z,-1.04
2019-02-19T01:42:36.931Z,-1.05
2019-02-19T01:45:07.706Z,-1.06
2019-02-19T01:47:36.098Z,-1.06
2019-02-19T01:50:06.731Z,-1.06
2019-02-19T01:52:35.123Z,-1.07
2019-02-19T01:55:04.291Z,-1.07
2019-02-19T01:57:32.685Z,-1.08
2019-02-19T02:00:01.081Z,-1.10
2019-02-19T02:02:29.478Z,-1.10
2019-02-19T02:04:57.877Z,-1.10
2019-02-19T02:07:26.954Z,-1.11
2019-02-19T02:09:55.457Z,-1.10
2019-02-19T02:12:23.849Z,-1.11
2019-02-19T02:14:52.242Z,-1.10
2019-02-19T02:17:21.303Z,-1.12
2019-02-19T02:19:49.798Z,-1.13
2019-02-19T02:22:18.180Z,-1.15
2019-02-19T02:24:46.577Z,-1.16
2019-02-19T02:27:14.971Z,-1.15
2019-02-19T02:29:43.368Z,-1.16
2019-02-19T02:32:11.755Z,-1.17
2019-02-19T02:34:40.142Z,-1.18
2019-02-19T02:37:08.537Z,-1.19
2019-02-19T02:39:36.948Z,-1.20
2019-02-19T02:42:05.610Z,-1.22
2019-02-19T02:44:34.009Z,-1.20
2019-02-19T02:47:02.402Z,-1.21
2019-02-19T02:49:30.795Z,-1.22
2019-02-19T02:51:59.186Z,-1.24
2019-02-19T02:54:27.587Z,-1.23
2019-02-19T02:56:55.990Z,-1.21
2019-02-19T02:59:24.390Z,-1.23
2019-02-19T03:01:52.782Z,-1.23
2019-02-19T03:04:21.175Z,-1.25
2019-02-19T03:06:51.207Z,-1.25
2019-02-19T03:09:19.608Z,-1.26
2019-02-19T03:11:48.156Z,-1.25
2019-02-19T03:14:16.548Z,-1.24
2019-02-19T03:16:45.027Z,-1.25
2019-02-19T03:19:13.424Z,-1.25
2019-02-19T03:21:41.825Z,-1.26
2019-02-19T03:24:10.236Z,-1.28
2019-02-19T03:26:38.626Z,-1.29
2019-02-19T03:29:07.030Z,-1.28
2019-02-19T03:31:35.420Z,-1.28
2019-02-19T03:34:03.818Z,-1.29
2019-02-19T03:36:32.395Z,-1.29
2019-02-19T03:39:00.785Z,-1.28
2019-02-19T03:41:29.362Z,-1.29
2019-02-19T03:43:57.752Z,-1.29
2019-02-19T03:46:27.682Z,-1.28
2019-02-19T03:48:56.078Z,-1.28
2019-02-19T03:51:24.565Z,-1.28
2019-02-19T03:53:52.933Z,-1.28
2019-02-19T03:56:21.417Z,-1.28
2019-02-19T03:58:49.812Z,-1.28
2019-02-19T04:01:18.566Z,-1.28
2019-02-19T04:03:46.959Z,-1.28
2019-02-19T04:06:16.148Z,-1.29
2019-02-19T04:08:44.539Z,-1.29
2019-02-19T04:11:13.484Z,-1.30
2019-02-19T04:13:41.895Z,-1.30
2019-02-19T04:16:10.708Z,-1.32
2019-02-19T04:18:39.103Z,-1.33
2019-02-19T04:21:07.493Z,-1.34
2019-02-19T04:23:35.885Z,-1.34
2019-02-19T04:26:04.375Z,-1.36
2019-02-19T04:28:32.775Z,-1.36
2019-02-19T04:31:01.193Z,-1.37
2019-02-19T04:33:29.599Z,-1.36
2019-02-19T04:35:58.007Z,-1.38
2019-02-19T04:38:26.445Z,-1.40
2019-02-19T04:40:54.863Z,-1.43
2019-02-19T04:43:23.270Z,-1.43
2019-02-19T04:45:51.692Z,-1.46
2019-02-19T04:48:20.088Z,-1.46
2019-02-19T04:50:48.574Z,-1.46
2019-02-19T04:53:17.006Z,-1.46
2019-02-19T04:55:45.404Z,-1.46
2019-02-19T04:58:13.841Z,-1.48
2019-02-19T05:00:42.222Z,-1.51
2019-02-19T05:03:10.611Z,-1.54
2019-02-19T05:05:39.004Z,-1.54
2019-02-19T05:08:07.397Z,-1.56
2019-02-19T05:10:35.791Z,-1.57
2019-02-19T05:13:04.190Z,-1.59
2019-02-19T05:15:32.612Z,-1.58
2019-02-19T05:18:01.002Z,-1.57
2019-02-19T05:20:29.410Z,-1.57
2019-02-19T05:22:57.817Z,-1.57
2019-02-19T05:25:26.217Z,-1.59
2019-02-19T05:27:54.608Z,-1.58
2019-02-19T05:30:23.008Z,-1.61
2019-02-19T05:32:51.400Z,-1.62
2019-02-19T05:35:19.803Z,-1.64
2019-02-19T05:37:48.196Z,-1.66
2019-02-19T05:40:16.674Z,-1.66
2019-02-19T05:42:45.089Z,-1.72
2019-02-19T05:45:13.478Z,-1.72
2019-02-19T05:47:41.888Z,-1.74
2019-02-19T05:50:10.528Z,-1.75
2019-02-19T05:52:38.921Z,-1.77
2019-02-19T05:55:08.181Z,-1.78
2019-02-19T05:57:36.602Z,-1.78
2019-02-19T06:00:09.131Z,-1.80
2019-02-19T06:02:37.506Z,-1.82
2019-02-19T06:05:07.944Z,-1.83
2019-02-19T06:07:36.356Z,-1.85
2019-02-19T06:10:07.791Z,-1.85
2019-02-19T06:12:36.189Z,-1.88
2019-02-19T06:15:06.842Z,-1.89
2019-02-19T06:17:35.233Z,-1.90
2019-02-19T06:20:04.616Z,-1.92
2019-02-19T06:22:33.006Z,-1.90
2019-02-19T06:25:01.404Z,-1.90
2019-02-19T06:27:29.799Z,-1.89
2019-02-19T06:29:58.188Z,-1.89
2019-02-19T06:32:26.586Z,-1.87
2019-02-19T06:34:54.979Z,-1.86
2019-02-19T06:37:23.374Z,-1.87
2019-02-19T06:39:51.773Z,-1.87
2019-02-19T06:42:20.170Z,-1.88
2019-02-19T06:44:48.562Z,-1.88
2019-02-19T06:47:16.971Z,-1.89
2019-02-19T06:49:45.349Z,-1.88
2019-02-19T06:52:13.758Z,-1.85
2019-02-19T06:54:42.213Z,-1.82
2019-02-19T06:57:10.693Z,-1.80
2019-02-19T06:59:39.097Z,-1.78
2019-02-19T07:02:25.572Z,-1.73
2019-02-19T07:04:54.647Z,-1.70
2019-02-19T07:07:23.044Z,-1.65
2019-02-19T07:09:51.448Z,-1.60
2019-02-19T07:12:19.852Z,-1.57
2019-02-19T07:14:48.250Z,-1.54
2019-02-19T07:17:17.762Z,-1.52
2019-02-19T07:19:46.154Z,-1.50
2019-02-19T07:22:14.548Z,-1.46
2019-02-19T07:24:42.937Z,-1.43
2019-02-19T07:27:11.346Z,-1.39
2019-02-19T07:29:39.733Z,-1.37
2019-02-19T07:32:08.134Z,-1.33
2019-02-19T07:34:36.532Z,-1.26
2019-02-19T07:37:04.926Z,-1.22
2019-02-19T07:39:33.323Z,-1.18
2019-02-19T07:42:01.716Z,-1.14
2019-02-19T07:44:30.113Z,-1.10
2019-02-19T07:46:58.506Z,-1.05
2019-02-19T07:49:26.897Z,-1.01
2019-02-19T07:51:55.298Z,-0.95
2019-02-19T07:54:23.694Z,-0.87
2019-02-19T07:56:52.095Z,-0.81
2019-02-19T07:59:20.492Z,-0.77
2019-02-19T08:01:48.887Z,-0.74
2019-02-19T08:04:17.277Z,-0.69
2019-02-19T08:06:45.665Z,-0.64
2019-02-19T08:09:14.056Z,-0.61
2019-02-19T08:11:42.449Z,-0.59
2019-02-19T08:14:10.869Z,-0.56
2019-02-19T08:16:39.306Z,-0.52
2019-02-19T08:19:07.700Z,-0.50
2019-02-19T08:21:36.096Z,-0.49
2019-02-19T08:24:04.493Z,-0.48
2019-02-19T08:26:32.907Z,-0.44
2019-02-19T08:29:11.415Z,-0.41
2019-02-19T08:31:31.413Z,-0.37
2019-02-19T08:33:59.890Z,-0.31
2019-02-19T08:36:29.649Z,-0.26
2019-02-19T08:38:58.259Z,-0.20
2019-02-19T08:41:26.659Z,-0.13
2019-02-19T08:43:55.062Z,-0.08
2019-02-19T08:46:23.457Z,-0.01
2019-02-19T08:48:51.845Z,0.04
2019-02-19T08:51:20.243Z,0.10
2019-02-19T08:53:48.630Z,0.17
2019-02-19T08:56:17.020Z,0.22
2019-02-19T08:58:45.411Z,0.27
2019-02-19T09:01:13.806Z,0.37
2019-02-19T09:03:42.200Z,0.45
2019-02-19T09:06:10.585Z,0.51
2019-02-19T09:08:38.989Z,0.56
2019-02-19T09:11:07.378Z,0.62
2019-02-19T09:13:35.769Z,0.70
2019-02-19T09:16:04.183Z,0.79
2019-02-19T09:18:32.546Z,0.86
2019-02-19T09:21:00.934Z,0.95
2019-02-19T09:23:29.322Z,1.01
2019-02-19T09:25:57.712Z,1.04
2019-02-19T09:28:26.108Z,1.16
2019-02-19T09:30:54.493Z,1.29
2019-02-19T09:33:23.098Z,1.37
2019-02-19T09:35:51.485Z,1.46
2019-02-19T09:38:19.875Z,1.53
2019-02-19T09:40:48.263Z,1.61
2019-02-19T09:43:16.660Z,1.66
2019-02-19T09:45:45.051Z,1.74
2019-02-19T09:48:13.445Z,1.80
2019-02-19T09:50:41.835Z,1.86
2019-02-19T09:53:10.226Z,1.95
2019-02-19T09:55:38.618Z,2.09
2019-02-19T09:58:07.007Z,2.20
2019-02-19T10:00:35.464Z,2.32
2019-02-19T10:03:03.851Z,2.37
2019-02-19T10:05:32.239Z,2.43
2019-02-19T10:08:00.629Z,2.56
2019-02-19T10:10:29.017Z,2.64
2019-02-19T10:12:57.403Z,2.71
2019-02-19T10:15:25.793Z,2.78
2019-02-19T10:17:54.194Z,2.89
2019-02-19T10:20:22.580Z,2.97
2019-02-19T10:22:50.978Z,3.08
2019-02-19T10:25:19.361Z,3.14
2019-02-19T10:27:47.761Z,3.26
2019-02-19T10:30:17.789Z,3.33
2019-02-19T10:32:46.184Z,3.41
2019-02-19T10:35:14.568Z,3.49
2019-02-19T10:37:42.963Z,3.57
2019-02-19T10:40:18.507Z,3.66
2019-02-19T10:42:46.908Z,3.76
2019-02-19T10:45:20.693Z,3.81
2019-02-19T10:47:49.085Z,4.01
2019-02-19T10:50:17.543Z,4.12
2019-02-19T10:52:46.105Z,4.19
2019-02-19T10:55:14.527Z,4.32
2019-02-19T10:57:42.910Z,4.46
2019-02-19T11:00:19.822Z,4.64
2019-02-19T11:02:48.272Z,4.80
2019-02-19T11:05:16.685Z,4.86
2019-02-19T11:07:45.061Z,4.97
2019-02-19T11:10:14.349Z,4.98
2019-02-19T11:12:42.731Z,5.05
2019-02-19T11:15:12.684Z,5.12
2019-02-19T11:17:41.058Z,5.16
2019-02-19T11:20:21.470Z,5.24
2019-02-19T11:22:49.900Z,5.38
2019-02-19T11:25:18.716Z,5.55
2019-02-19T11:27:47.235Z,5.66
2019-02-19T11:30:17.859Z,5.80
2019-02-19T11:32:46.260Z,6.05
2019-02-19T11:35:14.759Z,6.22
2019-02-19T11:37:43.148Z,6.47
2019-02-19T11:40:12.902Z,6.68
2019-02-19T11:42:41.564Z,6.82
2019-02-19T11:45:12.693Z,6.84
2019-02-19T11:47:41.086Z,6.94
2019-02-19T11:50:12.170Z,7.06
2019-02-19T11:52:40.546Z,7.16
2019-02-19T11:55:14.258Z,7.30
2019-02-19T11:57:42.648Z,7.40
2019-02-19T12:00:17.138Z,7.53
2019-02-19T12:02:45.570Z,7.69
2019-02-19T12:05:13.976Z,7.82
2019-02-19T12:07:42.380Z,7.80
2019-02-19T12:10:12.059Z,7.79
2019-02-19T12:12:40.604Z,7.72
2019-02-19T12:15:11.772Z,7.64
2019-02-19T12:17:40.166Z,7.54
2019-02-19T12:20:13.461Z,7.49
2019-02-19T12:22:41.856Z,7.55
2019-02-19T12:25:10.684Z,7.64
2019-02-19T12:27:39.147Z,7.68
2019-02-19T12:30:11.071Z,7.67
2019-02-19T12:32:39.463Z,7.20
2019-02-19T12:35:08.606Z,7.69
2019-02-19T12:37:36.989Z,7.78
2019-02-19T12:40:08.415Z,7.84
2019-02-19T12:42:36.820Z,7.89
2019-02-19T12:45:07.588Z,7.92
2019-02-19T12:47:35.982Z,7.93
2019-02-19T12:50:07.362Z,7.96
2019-02-19T12:52:35.778Z,7.94
2019-02-19T12:55:04.472Z,7.90
2019-02-19T12:57:32.857Z,7.90
2019-02-19T13:00:01.295Z,7.94
2019-02-19T13:02:29.667Z,7.97
2019-02-19T13:04:58.060Z,8.00
2019-02-19T13:07:26.475Z,8.04
2019-02-19T13:09:54.864Z,8.04
2019-02-19T13:12:23.253Z,7.97
2019-02-19T13:14:51.644Z,7.96
2019-02-19T13:17:20.033Z,7.91
2019-02-19T13:19:48.450Z,7.93
2019-02-19T13:22:16.835Z,7.95
2019-02-19T13:24:45.266Z,7.99
2019-02-19T13:27:13.734Z,8.02
2019-02-19T13:29:42.123Z,8.05
2019-02-19T13:32:10.519Z,8.07
2019-02-19T13:34:38.911Z,8.12
2019-02-19T13:37:07.372Z,8.16
2019-02-19T13:39:35.758Z,8.23
2019-02-19T13:42:04.148Z,8.27
2019-02-19T13:44:32.541Z,8.32
2019-02-19T13:47:00.928Z,8.38
2019-02-19T13:49:29.313Z,8.42
2019-02-19T13:51:59.348Z,8.45
2019-02-19T13:54:28.810Z,8.44
2019-02-19T13:56:57.202Z,8.46
2019-02-19T13:59:25.667Z,8.51
2019-02-19T14:01:54.088Z,8.53
2019-02-19T14:04:22.470Z,8.58
2019-02-19T14:06:50.859Z,8.63
2019-02-19T14:09:19.295Z,8.61
2019-02-19T14:11:47.724Z,8.59
2019-02-19T14:14:27.042Z,8.59
2019-02-19T14:16:57.204Z,8.63
2019-02-19T14:19:27.248Z,8.69
2019-02-19T14:21:57.277Z,8.74
2019-02-19T14:24:39.368Z,8.70
2019-02-19T14:27:18.062Z,8.68
2019-02-19T14:29:53.881Z,8.69
2019-02-19T14:32:40.393Z,8.70
2019-02-19T14:35:23.062Z,8.73
2019-02-19T14:37:53.121Z,8.74
2019-02-19T14:40:35.458Z,8.73
2019-02-19T14:43:14.297Z,8.72
2019-02-19T14:46:02.140Z,8.63
2019-02-19T14:48:43.810Z,8.55
2019-02-19T14:51:13.843Z,8.48
2019-02-19T14:53:43.951Z,8.44
2019-02-19T14:56:16.708Z,8.44
2019-02-19T14:59:02.929Z,8.36
2019-02-19T15:01:45.123Z,8.32
2019-02-19T15:04:20.674Z,8.33
2019-02-19T15:06:50.701Z,8.29
2019-02-19T15:09:36.999Z,8.24
2019-02-19T15:12:12.506Z,8.23
2019-02-19T15:14:45.257Z,8.20
2019-02-19T15:17:31.360Z,8.21
2019-02-19T15:20:04.260Z,8.25
2019-02-19T15:22:49.071Z,8.29
2019-02-19T15:25:25.211Z,8.29
2019-02-19T15:28:01.248Z,8.26
2019-02-19T15:30:39.741Z,8.23
2019-02-19T15:33:09.767Z,8.20
2019-02-19T15:35:42.869Z,8.19
2019-02-19T15:38:24.909Z,8.19
2019-02-19T15:41:12.988Z,8.21
2019-02-19T15:43:48.943Z,8.22
2019-02-19T15:46:21.643Z,8.23
2019-02-19T15:49:08.011Z,8.23
2019-02-19T15:51:38.051Z,8.23
2019-02-19T15:54:17.248Z,8.21
2019-02-19T15:57:02.583Z,8.18
2019-02-19T15:59:32.775Z,8.15
2019-02-19T16:02:05.231Z,8.14
2019-02-19T16:04:35.275Z,8.12
2019-02-19T16:07:21.416Z,8.13
2019-02-19T16:09:57.189Z,8.14
2019-02-19T16:12:32.725Z,8.15
2019-02-19T16:15:02.782Z,8.15
2019-02-19T16:17:39.126Z,8.16
2019-02-19T16:20:10.904Z,8.18
2019-02-19T16:22:56.784Z,8.22
2019-02-19T16:25:32.564Z,8.13
2019-02-19T16:28:02.633Z,8.04
2019-02-19T16:30:47.459Z,7.98
2019-02-19T16:33:23.487Z,7.93
2019-02-19T16:35:56.461Z,7.84
2019-02-19T16:38:38.103Z,7.75
2019-02-19T16:41:10.539Z,7.68
2019-02-19T16:43:43.227Z,7.63
2019-02-19T16:46:25.147Z,7.55
2019-02-19T16:49:00.901Z,7.51
2019-02-19T16:51:30.934Z,7.52
2019-02-19T16:54:04.048Z,7.57
2019-02-19T16:56:36.782Z,7.65
2019-02-19T16:59:07.717Z,7.73
2019-02-19T17:01:41.071Z,7.78
2019-02-19T17:04:29.232Z,7.86
2019-02-19T17:07:11.304Z,7.90
2019-02-19T17:09:44.340Z,7.93
2019-02-19T17:12:30.720Z,7.92
2019-02-19T17:15:06.474Z,7.89
2019-02-19T17:17:39.225Z,7.86
2019-02-19T17:20:28.795Z,7.78
2019-02-19T17:22:50.850Z,7.71
2019-02-19T17:25:20.896Z,7.66
2019-02-19T17:27:59.601Z,7.60
2019-02-19T17:30:38.348Z,7.51
2019-02-19T17:33:26.571Z,7.44
2019-02-19T17:35:59.443Z,7.41
2019-02-19T17:38:32.167Z,7.41
2019-02-19T17:41:14.187Z,7.39
2019-02-19T17:43:53.274Z,7.38
2019-02-19T17:46:41.397Z,7.33
2019-02-19T17:49:23.334Z,7.32
2019-02-19T17:52:05.066Z,7.32
2019-02-19T17:54:35.109Z,7.28
2019-02-19T17:57:21.548Z,7.27
2019-02-19T18:00:00.635Z,7.28
2019-02-19T18:02:42.574Z,7.27
2019-02-19T18:05:27.569Z,7.24
2019-02-19T18:08:03.835Z,7.20
2019-02-19T18:10:33.865Z,7.17
2019-02-19T18:13:03.903Z,7.15
2019-02-19T18:15:40.079Z,7.18
2019-02-19T18:18:12.997Z,7.17
2019-02-19T18:20:47.312Z,7.15
2019-02-19T18:23:11.577Z,7.01
2019-02-19T18:25:39.967Z,7.08
2019-02-19T18:28:08.364Z,7.04
2019-02-19T18:30:36.779Z,7.00
2019-02-19T18:33:05.169Z,6.97
2019-02-19T18:35:33.930Z,6.94
2019-02-19T18:38:02.335Z,6.91
2019-02-19T18:40:30.808Z,6.87
2019-02-19T18:42:59.204Z,6.86
2019-02-19T18:45:27.695Z,6.83
2019-02-19T18:47:56.086Z,6.82
2019-02-19T18:50:24.494Z,6.83
2019-02-19T18:52:52.878Z,6.85
2019-02-19T18:55:21.269Z,6.83
2019-02-19T18:57:50.645Z,6.80
2019-02-19T19:00:19.108Z,6.78
2019-02-19T19:02:47.513Z,6.76
2019-02-19T19:05:15.917Z,6.69
2019-02-19T19:07:44.309Z,6.64
2019-02-19T19:10:12.865Z,6.61
2019-02-19T19:12:41.292Z,6.59
2019-02-19T19:15:10.566Z,6.56
2019-02-19T19:17:38.974Z,6.51
2019-02-19T19:20:10.247Z,6.51
2019-02-19T19:22:38.640Z,6.49
2019-02-19T19:25:07.781Z,6.46
2019-02-19T19:27:36.177Z,6.41
2019-02-19T19:30:07.454Z,6.34
2019-02-19T19:32:35.841Z,6.28
2019-02-19T19:35:05.977Z,6.23
2019-02-19T19:37:34.370Z,6.18
2019-02-19T19:40:02.758Z,6.14
2019-02-19T19:42:31.150Z,6.08
2019-02-19T19:45:00.478Z,6.04
2019-02-19T19:47:28.869Z,5.96
2019-02-19T19:49:57.256Z,5.91
2019-02-19T19:52:25.649Z,5.66
2019-02-19T19:54:54.037Z,5.90
2019-02-19T19:57:22.461Z,5.88
2019-02-19T19:59:50.848Z,5.84
2019-02-19T20:02:20.069Z,5.80
2019-02-19T20:04:48.547Z,5.76
2019-02-19T20:07:16.977Z,5.74
2019-02-19T20:09:45.369Z,5.71
2019-02-19T20:12:13.772Z,5.67
2019-02-19T20:14:42.196Z,5.60
2019-02-19T20:17:10.599Z,5.57
2019-02-19T20:19:38.984Z,5.53
2019-02-19T20:22:07.418Z,5.49
2019-02-19T20:24:35.822Z,5.44
2019-02-19T20:27:04.240Z,5.37
2019-02-19T20:29:32.668Z,5.30
2019-02-19T20:32:01.056Z,5.24
2019-02-19T20:34:29.481Z,5.16
2019-02-19T20:36:57.867Z,5.07
2019-02-19T20:39:26.287Z,5.00
2019-02-19T20:41:54.749Z,4.93
2019-02-19T20:44:23.171Z,4.89
2019-02-19T20:46:51.562Z,4.90
2019-02-19T20:49:20.075Z,4.91
2019-02-19T20:51:48.548Z,4.90
2019-02-19T20:54:16.947Z,4.89
2019-02-19T20:56:45.343Z,4.88
2019-02-19T20:59:13.769Z,4.86
2019-02-19T21:01:42.264Z,4.81
2019-02-19T21:04:10.677Z,4.77
2019-02-19T21:06:39.070Z,4.72
2019-02-19T21:09:07.544Z,4.66
2019-02-19T21:11:35.943Z,4.60
2019-02-19T21:14:04.524Z,4.52
2019-02-19T21:16:32.922Z,4.44
2019-02-19T21:19:01.491Z,4.35
2019-02-19T21:21:29.900Z,4.27
2019-02-19T21:23:59.134Z,4.21
2019-02-19T21:26:28.461Z,4.13
2019-02-19T21:28:56.865Z,4.06
2019-02-19T21:31:25.274Z,3.98
2019-02-19T21:33:53.696Z,3.93
2019-02-19T21:36:22.108Z,3.86
2019-02-19T21:38:52.418Z,3.81
2019-02-19T21:41:20.640Z,3.78
2019-02-19T21:43:49.034Z,3.75
2019-02-19T21:46:17.430Z,3.72
2019-02-19T21:48:48.137Z,3.70
2019-02-19T21:51:16.406Z,3.65
2019-02-19T21:53:44.796Z,3.59
2019-02-19T21:56:13.192Z,3.55
2019-02-19T21:58:41.592Z,3.54
2019-02-19T22:01:10.015Z,3.50
2019-02-19T22:03:38.465Z,3.47
2019-02-19T22:06:06.863Z,3.41
2019-02-19T22:08:35.280Z,3.34
2019-02-19T22:11:03.707Z,3.28
2019-02-19T22:13:32.466Z,3.19
2019-02-19T22:16:00.859Z,3.11
2019-02-19T22:18:29.248Z,3.07
2019-02-19T22:21:02.249Z,3.03
2019-02-19T22:23:30.644Z,2.99
2019-02-19T22:25:59.075Z,2.96
2019-02-19T22:28:27.464Z,2.94
2019-02-19T22:30:55.868Z,2.91
2019-02-19T22:33:24.260Z,2.85
2019-02-19T22:35:52.668Z,2.79
2019-02-19T22:38:21.063Z,2.75
2019-02-19T22:40:55.188Z,2.69
2019-02-19T22:43:19.651Z,2.64
2019-02-19T22:45:48.036Z,2.60
2019-02-19T22:48:16.432Z,2.55
2019-02-19T22:50:44.816Z,2.52
2019-02-19T22:53:31.049Z,2.49
2019-02-19T22:56:01.225Z,2.47
2019-02-19T22:58:29.617Z,2.46
2019-02-19T23:01:02.413Z,2.45
2019-02-19T23:03:30.901Z,2.43
2019-02-19T23:05:59.291Z,2.41
2019-02-19T23:08:27.691Z,2.39
2019-02-19T23:10:56.120Z,2.35
2019-02-19T23:13:24.509Z,2.34
2019-02-19T23:15:52.926Z,2.30
2019-02-19T23:18:21.322Z,2.27
2019-02-19T23:20:49.745Z,2.22
2019-02-19T23:23:18.135Z,2.18
2019-02-19T23:25:46.551Z,2.15
2019-02-19T23:28:14.944Z,2.11
2019-02-19T23:30:43.391Z,2.10
2019-02-19T23:33:11.862Z,2.08
2019-02-19T23:35:47.681Z,2.06
2019-02-19T23:38:16.106Z,2.02
2019-02-19T23:40:44.493Z,1.97
2019-02-19T23:43:12.890Z,1.93
2019-02-19T23:45:41.279Z,1.89
2019-02-19T23:48:09.706Z,1.86
2019-02-19T23:50:38.099Z,1.84
2019-02-19T23:53:06.489Z,1.83
2019-02-19T23:55:34.936Z,1.79
2019-02-19T23:58:03.360Z,1.75
